Aeroporto :
LOGIN :

Iscrizione | Disclaimer

   EN    FR    IT 

 










Sommario :    VFR   VFR Marginale   IFR   IFR Intensivo   IFR Molto Intensivo
Visibilità : 
Base nubi : 
>= 8 km
>= 3000ft
5 / 8 km
1000 / 3000 ft
1500m / 5 km
500 / 1000 ft
800 / 1500m
200 / 500 ft
< 800m
< 200 ft
Simboli :   Temporali  Nebbia  Neve Forte  Precipitazioni Forti  Vento > 20 kt
SIGMETs :   Varie  Temporali  Ghiacco  Turbolenza  Onda orograficha  Ceneri Vulcaniche







- Altitudine del aeroporto : 121 ft
- Codice IATA : HUY
- Carte del aeroporto


EGNJ - Humberside

ULTIMO METAR :
  • 201150Z 22018KT 9999 FEW020 10/07 Q1016

METARs OBSOLETI :
  • 201120Z 22017KT 9999 SCT020 10/07 Q1016
  • 201050Z 21018KT 9999 SCT020 10/07 Q1016
  • 201020Z 21017KT 9999 FEW022 09/07 Q1015
  • 200950Z 21017KT 9999 FEW025 09/07 Q1015
  • 200920Z 21015KT CAVOK 09/07 Q1015

TAF TAF EGNJ
Valido dal 20 a 12 ore il 20 a 21 ore UTC


201100Z 2012/2021 22015KT 9999 SCT020
PROB40
TEMPO 2016/2021 9000 -RA BKN014
ATIS : +44 1652 682 020
Nessun NOTAM noto per questo aeroporto.
1 SIGMET conosciuto per la FIR London (EGTT) :
 
Forte onda orograficha
EGTT SIGMET 02 VALID 200930/201330 EGRR
EGTT LONDON FIR SEV MTW FCST WI N5500 E00006 - N5430 E00009 - N5224 W00209 - N5222 W00327 - N5355 W00530 - N5500 W00530 - N5500 E00006 FL030/250 STNR NC=



MetMap, La meteo Aeronautica in un colpo d'occhio ! - Copyright ORBIFLY Dicembre 2007 - Disclaimer

ORBIFLY MET'MAP TEAM :

Programmazione e sviluppo : Alexandra Zaïnal
Concezione e sviluppo : Baudouin d'Aumeries
Co-Programmazione e sviluppo : Marc-Olivier Méhu
Supporto tecnico e logistico : Manuel Goepfert
Aiuto per la traduzione : Arnaldo La Scala

Contatto : metmap@orbifly.com




FONTI E CREDITI :

   NOAA